Monument Valley, Utah
Current Conditions -  °F | °C
As of 5:50 PM on Friday 24 Oct 2014 (Local Time) from KBDG Reporting Station
Clear Clear  
Wind Chill: 70°   Ceiling: Unl
Heat Index: 70°   Visibility: 10mi
Dew Point: 33°   Wind: 0mph
Humidity: 25%   Direction: NA
Pressure: 30.34"   Gusts: NA
Location:  37.1°N, 110.32°W
Report Text: KBDG 242350Z AUTO 00000KT 10SM CLR 21/01 A3034 RMK AO1 T02120005 10222 20023
Loading
Personal Weather Stations






























Interactive Weather Map New forecast layout! Learn more

10-Day Weather Forecast

Advertisements
Track Severe Weather on mobile